Time;durP1;ratioP1;P1;durP2;ratioP2;P2;SDS_P1;SDS_P2;PMS_P1;PMS_P2;Temp;Humidity;BMP_temperature;BMP_pressure;BME280_temperature;BME280_humidity;BME280_pressure;Samples;Min_cycle;Max_cycle;Signal;HPM_P1;HPM_P2
2021/12/22 00:02:03;;;;;;;40.20;18.38;;;;;;;-147.05;0.00;58818.84;5076601;28;20048;-69
2021/12/22 00:04:31;;;;;;;35.90;17.45;;;;;;;-1.70;0.00;58818.84;5095051;28;20041;-66
2021/12/22 00:06:57;;;;;;;36.10;17.85;;;;;;;-147.05;0.00;58818.84;5092940;28;20032;-69
2021/12/22 00:09:22;;;;;;;41.00;18.63;;;;;;;-147.05;0.00;58818.84;5089478;28;20049;-67
2021/12/22 00:11:49;;;;;;;36.97;17.60;;;;;;;-147.05;0.00;58818.84;5103542;28;20045;-66
2021/12/22 00:14:15;;;;;;;37.60;17.60;;;;;;;-147.05;0.00;58818.84;5095706;28;20033;-66
2021/12/22 00:16:41;;;;;;;38.60;18.88;;;;;;;-147.05;0.00;58818.84;5102225;28;20417;-66
2021/12/22 00:19:06;;;;;;;41.75;18.73;;;;;;;-147.05;0.00;58818.84;5092348;28;20040;-66
2021/12/22 00:21:32;;;;;;;39.78;18.48;;;;;;;-147.05;0.00;58818.84;5103002;28;20063;-68
2021/12/22 00:23:57;;;;;;;41.58;18.42;;;;;;;-147.05;0.00;58818.84;5093446;28;25869;-66
2021/12/22 00:26:23;;;;;;;36.40;18.52;;;;;;;-147.05;0.00;58818.84;5096853;28;20040;-65
2021/12/22 00:28:49;;;;;;;41.38;18.75;;;;;;;-147.05;0.00;58818.84;5099221;28;20117;-69
2021/12/22 00:31:18;;;;;;;40.08;17.95;;;;;;;-147.05;0.00;58818.84;5103402;28;20033;-67
2021/12/22 00:33:48;;;;;;;40.92;19.02;;;;;;;-147.05;0.00;58818.84;5092929;28;20076;-66
2021/12/22 00:36:18;;;;;;;44.28;18.60;;;;;;;-147.05;0.00;58818.84;5089583;28;20052;-66
2021/12/22 00:38:45;;;;;;;42.88;19.15;;;;;;;-147.05;0.00;58818.84;5096818;28;20048;-65
2021/12/22 00:41:11;;;;;;;44.38;18.55;;;;;;;-147.05;0.00;58818.84;5099220;28;20483;-65
2021/12/22 00:43:37;;;;;;;46.63;18.85;;;;;;;-147.05;0.00;58818.84;5105025;28;20040;-65
2021/12/22 00:46:03;;;;;;;44.90;18.35;;;;;;;-147.05;0.00;58818.84;5093495;28;20041;-68
2021/12/22 00:48:29;;;;;;;44.90;18.30;;;;;;;-147.05;0.00;58818.84;5094036;28;20075;-67
2021/12/22 00:50:54;;;;;;;43.00;19.02;;;;;;;-147.05;0.00;58818.84;5102523;28;42504;-67
2021/12/22 00:53:20;;;;;;;41.47;17.52;;;;;;;-147.05;0.00;58818.84;5100048;28;20041;-67
2021/12/22 00:55:47;;;;;;;41.25;17.83;;;;;;;-147.05;0.00;58818.84;5090292;28;20053;-68
2021/12/22 00:58:13;;;;;;;41.97;18.33;;;;;;;-147.05;0.00;58818.84;5091539;28;20480;-68
2021/12/22 01:00:38;;;;;;;39.08;18.70;;;;;;;-147.05;0.00;58818.84;5092461;28;20075;-68
2021/12/22 01:03:05;;;;;;;36.97;16.55;;;;;;;-147.05;0.00;58818.84;5101361;28;20051;-68
2021/12/22 01:05:31;;;;;;;35.95;17.40;;;;;;;-147.05;0.00;58818.84;5096337;28;20522;-68
2021/12/22 01:07:56;;;;;;;41.45;18.63;;;;;;;-147.05;0.00;58818.84;5098172;28;20128;-67
2021/12/22 01:10:27;;;;;;;44.72;18.90;;;;;;;-147.05;0.00;58818.84;5097339;28;20044;-68
2021/12/22 01:12:58;;;;;;;44.33;18.15;;;;;;;-147.05;0.00;58818.84;5100317;28;20040;-67
2021/12/22 01:15:25;;;;;;;36.50;16.60;;;;;;;-147.05;0.00;58818.84;5091413;28;20037;-68
2021/12/22 01:17:59;;;;;;;40.80;18.40;;;;;;;-147.05;0.00;58818.84;5094373;28;20040;-68
2021/12/22 01:20:34;;;;;;;41.83;17.70;;;;;;;-147.05;0.00;58818.84;5093667;28;22205;-68
2021/12/22 01:23:03;;;;;;;38.80;18.15;;;;;;;-147.05;0.00;58818.84;5083410;28;20140;-68
2021/12/22 01:25:35;;;;;;;39.30;17.17;;;;;;;-147.05;0.00;58818.84;5087854;28;20045;-67
2021/12/22 01:28:01;;;;;;;47.55;17.73;;;;;;;-147.05;0.00;58818.84;5101525;28;20048;-69
2021/12/22 01:30:31;;;;;;;38.22;17.95;;;;;;;-147.05;0.00;58818.84;5087787;28;20058;-68
2021/12/22 01:33:00;;;;;;;47.25;18.50;;;;;;;-147.05;0.00;58818.84;5089497;28;20040;-66
2021/12/22 01:35:32;;;;;;;44.47;19.63;;;;;;;-147.05;0.00;58818.84;5097903;28;20041;-68
2021/12/22 01:37:58;;;;;;;42.67;17.55;;;;;;;-147.05;0.00;58818.84;5097344;28;20066;-66
2021/12/22 01:40:25;;;;;;;41.38;17.98;;;;;;;-147.05;0.00;58818.84;5093282;28;20037;-67
2021/12/22 01:42:55;;;;;;;48.97;19.02;;;;;;;-147.05;0.00;58818.84;5094003;28;20466;-66
2021/12/22 01:46:08;;;;;;;40.13;18.48;;;;;;;-147.05;0.00;58818.84;5098271;28;21273;-69
2021/12/22 01:49:11;;;;;;;37.85;17.30;;;;;;;-147.05;0.00;58818.84;5091233;28;20059;-65
2021/12/22 01:52:00;;;;;;;43.95;17.52;;;;;;;-147.05;0.00;58818.84;5098000;28;20056;-65
2021/12/22 01:54:34;;;;;;;43.30;18.70;;;;;;;-147.05;0.00;58818.84;5105551;28;20039;-65
2021/12/22 01:57:06;;;;;;;43.08;18.20;;;;;;;-147.05;0.00;58818.84;5104586;28;20097;-66
2021/12/22 01:59:32;;;;;;;47.33;19.00;;;;;;;-147.05;0.00;58818.84;5097153;28;20047;-65
2021/12/22 02:02:01;;;;;;;43.53;18.48;;;;;;;-147.05;0.00;58818.84;5101494;28;20556;-65
2021/12/22 02:04:26;;;;;;;44.47;17.48;;;;;;;-147.05;0.00;58818.84;5098158;28;20037;-66
2021/12/22 02:06:52;;;;;;;42.42;16.60;;;;;;;-147.05;0.00;58818.84;5101202;28;20044;-65
2021/12/22 02:12:06;;;;;;;41.20;16.90;;;;;;;-147.05;0.00;58818.84;5088643;28;20047;-65
2021/12/22 02:14:32;;;;;;;42.33;17.13;;;;;;;-147.05;0.00;58818.84;5098494;28;20082;-65
2021/12/22 02:16:57;;;;;;;41.60;17.88;;;;;;;-147.05;0.00;58818.84;5095347;28;20044;-68
2021/12/22 02:19:23;;;;;;;42.97;18.33;;;;;;;-147.05;0.00;58818.84;5107962;28;20036;-65
2021/12/22 02:21:54;;;;;;;45.50;17.88;;;;;;;-147.05;0.00;58818.84;5100894;28;20617;-68
2021/12/22 02:24:19;;;;;;;41.30;17.75;;;;;;;-147.05;0.00;58818.84;5095576;28;21926;-67
2021/12/22 02:26:51;;;;;;;43.53;18.67;;;;;;;-147.05;0.00;58818.84;5093645;28;20052;-67
2021/12/22 02:29:21;;;;;;;40.83;18.10;;;;;;;-147.05;0.00;58818.84;5096795;28;20098;-69
2021/12/22 02:32:06;;;;;;;39.35;17.13;;;;;;;-147.05;0.00;58818.84;5104087;28;20044;-70
2021/12/22 02:34:45;;;;;;;46.22;18.60;;;;;;;-147.05;0.00;58818.84;5098785;27;20062;-66
2021/12/22 02:37:16;;;;;;;41.70;17.05;;;;;;;-147.05;0.00;58818.84;5103129;28;20048;-66
2021/12/22 02:39:57;;;;;;;37.83;17.10;;;;;;;-147.05;0.00;58818.84;5093097;28;20051;-68
2021/12/22 02:42:27;;;;;;;41.72;17.23;;;;;;;-147.05;0.00;58818.84;5097332;28;20036;-66
2021/12/22 02:44:53;;;;;;;41.95;18.30;;;;;;;-147.05;0.00;58818.84;5088293;28;20053;-67
2021/12/22 02:47:25;;;;;;;43.90;18.45;;;;;;;-147.05;0.00;58818.84;5092238;28;42056;-66
2021/12/22 02:49:51;;;;;;;36.88;16.67;;;;;;;-147.05;0.00;58818.84;5101129;28;20048;-66
2021/12/22 02:52:19;;;;;;;46.03;17.50;;;;;;;-147.05;0.00;58818.84;5094387;28;20036;-66
2021/12/22 02:54:53;;;;;;;40.08;17.85;;;;;;;-147.05;0.00;58818.84;5090096;28;20123;-66
2021/12/22 02:57:39;;;;;;;39.20;16.50;;;;;;;-147.05;0.00;58818.84;5095799;28;20060;-68
2021/12/22 03:00:29;;;;;;;38.15;16.20;;;;;;;-147.05;0.00;58818.84;5096154;28;20041;-67
2021/12/22 03:03:14;;;;;;;41.15;17.98;;;;;;;-147.05;0.00;58818.84;5091396;28;20211;-66
2021/12/22 03:05:40;;;;;;;43.50;16.27;;;;;;;-147.05;0.00;58818.84;5093365;28;20133;-66
2021/12/22 03:08:06;;;;;;;42.38;17.02;;;;;;;-147.05;0.00;58818.84;5101305;28;20044;-70
2021/12/22 03:10:32;;;;;;;39.17;15.98;;;;;;;-147.05;0.00;58818.84;5103692;28;20036;-65
2021/12/22 03:13:03;;;;;;;37.65;15.13;;;;;;;-147.05;0.00;58818.84;5097055;28;20469;-66
2021/12/22 03:15:29;;;;;;;40.22;16.30;;;;;;;-147.05;0.00;58818.84;5086739;28;20044;-66
2021/12/22 03:17:55;;;;;;;40.47;16.55;;;;;;;-147.05;0.00;58818.84;5086962;28;20123;-66
2021/12/22 03:20:20;;;;;;;39.00;16.88;;;;;;;-147.05;0.00;58818.84;5090855;28;20470;-65
2021/12/22 03:22:47;;;;;;;39.75;16.45;;;;;;;-147.05;0.00;58818.84;5092571;28;20041;-66
2021/12/22 03:25:16;;;;;;;38.63;16.98;;;;;;;-3.02;0.00;58818.84;5089336;28;20032;-66
2021/12/22 03:27:51;;;;;;;42.53;15.75;;;;;;;-147.05;0.00;58818.84;5102514;28;20045;-66
2021/12/22 03:30:21;;;;;;;39.05;15.98;;;;;;;-147.05;0.00;58818.84;5094668;28;20048;-67
2021/12/22 03:32:46;;;;;;;37.53;15.20;;;;;;;-147.05;0.00;58818.84;5090738;28;20072;-67
2021/12/22 03:35:17;;;;;;;36.30;16.17;;;;;;;-147.05;0.00;58818.84;5090620;28;20552;-66
2021/12/22 03:37:45;;;;;;;33.90;15.48;;;;;;;-147.05;0.00;58818.84;5081940;28;20525;-67
2021/12/22 03:40:11;;;;;;;39.90;15.70;;;;;;;-147.05;0.00;58818.84;5101228;28;20051;-67
2021/12/22 03:42:37;;;;;;;33.60;15.52;;;;;;;-147.05;0.00;58818.84;5106234;28;20071;-66
2021/12/22 03:45:03;;;;;;;38.33;15.80;;;;;;;-147.05;0.00;58818.84;5094577;28;20070;-65
2021/12/22 03:47:29;;;;;;;36.75;15.48;;;;;;;-147.05;0.00;58818.84;5092407;28;20074;-68
2021/12/22 03:49:54;;;;;;;37.45;16.48;;;;;;;-147.05;0.00;58818.84;5100370;28;20123;-67
2021/12/22 03:52:20;;;;;;;36.60;15.52;;;;;;;-147.05;0.00;58818.84;5102783;28;37252;-66
2021/12/22 03:54:45;;;;;;;34.42;15.02;;;;;;;-147.05;0.00;58818.84;5100056;28;20110;-66
2021/12/22 03:57:11;;;;;;;40.65;16.48;;;;;;;-147.05;0.00;58818.84;5098948;28;20572;-67
2021/12/22 03:59:37;;;;;;;37.58;16.10;;;;;;;-147.05;0.00;58818.84;5093501;28;26760;-67
2021/12/22 04:02:03;;;;;;;34.33;14.35;;;;;;;-147.05;0.00;58818.84;5088601;28;20128;-66
2021/12/22 04:04:28;;;;;;;34.30;15.88;;;;;;;-147.05;0.00;58818.84;5103157;28;20037;-67
2021/12/22 04:06:54;;;;;;;38.63;16.83;;;;;;;-147.05;0.00;58818.84;5095897;28;20041;-68
2021/12/22 04:09:26;;;;;;;35.50;16.08;;;;;;;-147.05;0.00;58818.84;5088156;28;20202;-65
2021/12/22 04:11:52;;;;;;;35.25;15.15;;;;;;;-147.05;0.00;58818.84;5103068;28;20046;-68
2021/12/22 04:14:17;;;;;;;34.30;15.10;;;;;;;-147.05;0.00;58818.84;5065238;28;20055;-64
2021/12/22 04:16:43;;;;;;;32.90;14.70;;;;;;;-147.05;0.00;58818.84;5107014;28;20051;-65
2021/12/22 04:19:08;;;;;;;37.10;15.27;;;;;;;-147.05;0.00;58818.84;5095200;28;20049;-64
2021/12/22 04:21:34;;;;;;;34.15;16.05;;;;;;;-147.05;0.00;58818.84;5101164;28;20041;-68
2021/12/22 04:24:01;;;;;;;33.47;15.40;;;;;;;-147.05;0.00;58818.84;5111408;28;20043;-67
2021/12/22 04:26:27;;;;;;;36.45;15.90;;;;;;;-147.05;0.00;58818.84;5102232;28;20043;-65
2021/12/22 04:28:54;;;;;;;33.40;14.85;;;;;;;-147.05;0.00;58818.84;5101581;28;20037;-64
2021/12/22 04:31:19;;;;;;;34.55;16.05;;;;;;;-147.05;0.00;58818.84;5087139;28;20043;-64
2021/12/22 04:33:45;;;;;;;33.40;15.25;;;;;;;-147.05;0.00;58818.84;5108441;28;20034;-67
2021/12/22 04:36:10;;;;;;;35.40;15.55;;;;;;;-147.05;0.00;58818.84;5095316;28;20124;-69
2021/12/22 04:38:36;;;;;;;36.03;15.38;;;;;;;-147.05;0.00;58818.84;5089070;28;20050;-67
2021/12/22 04:41:01;;;;;;;32.00;14.98;;;;;;;-147.05;0.00;58818.84;5092857;28;43139;-68
2021/12/22 04:43:27;;;;;;;36.20;14.52;;;;;;;-147.05;0.00;58818.84;5101625;28;20067;-68
2021/12/22 04:45:53;;;;;;;34.53;15.60;;;;;;;-147.05;0.00;58818.84;5106895;28;20147;-67
2021/12/22 04:48:19;;;;;;;38.13;15.68;;;;;;;-147.05;0.00;58818.84;5087637;28;21711;-68
2021/12/22 04:50:45;;;;;;;37.53;14.73;;;;;;;-147.05;0.00;58818.84;5091519;28;20103;-67
2021/12/22 04:53:37;;;;;;;36.63;15.57;;;;;;;-147.05;0.00;58818.84;5092605;28;20033;-67
2021/12/22 04:55:59;;;;;;;33.58;14.75;;;;;;;-147.05;0.00;58818.84;5090866;28;20044;-68
2021/12/22 04:58:24;;;;;;;31.17;14.43;;;;;;;-147.05;0.00;58818.84;5097515;28;25213;-66
2021/12/22 05:00:49;;;;;;;38.08;16.55;;;;;;;-147.05;0.00;58818.84;5092109;28;20040;-67
2021/12/22 05:03:15;;;;;;;39.95;15.65;;;;;;;-147.05;0.00;58818.84;5095815;28;41749;-65
2021/12/22 05:05:40;;;;;;;36.28;16.10;;;;;;;-147.05;0.00;58818.84;5095065;28;26136;-67
2021/12/22 05:08:06;;;;;;;29.67;14.88;;;;;;;-147.05;0.00;58818.84;5095438;28;28078;-67
2021/12/22 05:10:31;;;;;;;37.65;15.02;;;;;;;-147.05;0.00;58818.84;5094910;28;20449;-67
2021/12/22 05:12:57;;;;;;;33.20;14.93;;;;;;;-147.05;0.00;58818.84;5090931;28;20044;-64
2021/12/22 05:15:25;;;;;;;30.50;15.02;;;;;;;-147.05;0.00;58818.84;5102696;28;20036;-63
2021/12/22 05:20:18;;;;;;;35.15;16.17;;;;;;;-147.05;0.00;58818.84;5095423;28;20032;-65
2021/12/22 05:22:44;;;;;;;40.15;15.65;;;;;;;-147.05;0.00;58818.84;5101405;28;20486;-66
2021/12/22 05:25:12;;;;;;;35.50;15.30;;;;;;;-147.05;0.00;58818.84;5104051;28;20089;-65
2021/12/22 05:27:38;;;;;;;32.72;15.35;;;;;;;-147.05;0.00;58818.84;5101374;28;20083;-65
2021/12/22 05:30:08;;;;;;;31.00;13.98;;;;;;;-147.05;0.00;58818.84;5093904;28;20130;-65
2021/12/22 05:32:34;;;;;;;29.60;13.95;;;;;;;-147.05;0.00;58818.84;5096131;28;20063;-65
2021/12/22 05:35:04;;;;;;;32.17;14.40;;;;;;;-147.05;0.00;58818.84;5096025;28;20036;-64
2021/12/22 05:37:29;;;;;;;31.45;13.77;;;;;;;-147.05;0.00;58818.84;5096151;28;20041;-68
2021/12/22 05:39:56;;;;;;;33.47;14.30;;;;;;;-147.05;0.00;58818.84;5094653;28;36597;-65
2021/12/22 05:42:24;;;;;;;29.75;13.95;;;;;;;-147.05;0.00;58818.84;5095021;28;20044;-68
2021/12/22 05:44:49;;;;;;;33.60;14.48;;;;;;;-147.05;0.00;58818.84;5094273;28;20128;-69
2021/12/22 05:47:53;;;;;;;30.98;13.25;;;;;;;-147.05;0.00;58290.09;5170988;27;20386;-67
2021/12/22 05:50:22;;;;;;;32.33;13.32;;;;;;;-147.05;0.00;58290.09;5156572;27;20115;-65
2021/12/22 05:52:48;;;;;;;33.10;14.38;;;;;;;-147.05;0.00;58290.09;5160008;27;20165;-65
2021/12/22 05:55:13;;;;;;;30.15;12.65;;;;;;;-147.05;0.00;58290.09;5152923;27;20505;-66
2021/12/22 05:57:39;;;;;;;29.95;12.82;;;;;;;-147.05;0.00;58290.09;5159411;27;20040;-65
2021/12/22 06:00:06;;;;;;;30.63;13.68;;;;;;;-147.05;0.00;58290.09;5156243;27;20452;-66
2021/12/22 06:02:38;;;;;;;32.67;13.10;;;;;;;-147.05;0.00;58290.09;5149534;27;20497;-65
2021/12/22 06:05:04;;;;;;;28.52;13.02;;;;;;;-147.05;0.00;58290.09;5116036;27;20524;-64
2021/12/22 06:07:30;;;;;;;26.42;12.90;;;;;;;-147.05;0.00;58290.09;5092936;28;20044;-65
2021/12/22 06:09:55;;;;;;;29.80;13.10;;;;;;;-147.05;0.00;58290.09;5098484;28;30319;-65
2021/12/22 06:12:21;;;;;;;26.17;12.35;;;;;;;-147.05;0.00;58290.09;5104090;28;40787;-66
2021/12/22 06:14:46;;;;;;;31.15;13.45;;;;;;;-147.05;0.00;58290.09;5100547;28;20087;-65
2021/12/22 06:17:13;;;;;;;25.65;11.55;;;;;;;-147.05;0.00;58290.09;5094117;28;20467;-66
2021/12/22 06:19:38;;;;;;;30.63;13.45;;;;;;;-147.05;0.00;58290.09;5103465;28;20040;-65
2021/12/22 06:22:04;;;;;;;29.17;13.80;;;;;;;-147.05;0.00;58290.09;5090452;28;33046;-65
2021/12/22 06:24:29;;;;;;;29.05;12.90;;;;;;;-147.05;0.00;58290.09;5095863;28;20041;-65
2021/12/22 06:26:59;;;;;;;28.42;12.63;;;;;;;-147.05;0.00;58290.09;5093361;27;20052;-66
2021/12/22 06:29:25;;;;;;;26.02;12.10;;;;;;;-147.05;0.00;58290.09;5105878;27;20044;-65
2021/12/22 06:31:52;;;;;;;25.52;12.13;;;;;;;-147.05;0.00;58290.09;5096405;27;20490;-65
2021/12/22 06:34:20;;;;;;;29.70;13.13;;;;;;;-147.05;0.00;58290.09;5103319;27;20803;-66
2021/12/22 06:36:45;;;;;;;24.13;11.43;;;;;;;-147.05;0.00;58290.09;5105111;27;20036;-65
2021/12/22 06:39:11;;;;;;;27.63;12.57;;;;;;;-147.05;0.00;58290.09;5094986;27;20044;-66
2021/12/22 06:41:37;;;;;;;26.83;12.27;;;;;;;-147.05;0.00;58290.09;5093449;27;20072;-66
2021/12/22 06:44:05;;;;;;;21.52;11.55;;;;;;;-147.05;0.00;58290.09;5095342;27;42591;-66
2021/12/22 06:46:31;;;;;;;27.15;11.90;;;;;;;-147.05;0.00;58290.09;5090200;27;20056;-66
2021/12/22 06:48:56;;;;;;;26.75;11.98;;;;;;;-147.05;0.00;58290.09;5095354;27;20064;-64
2021/12/22 06:51:22;;;;;;;27.60;12.75;;;;;;;-147.05;0.00;58290.09;5098511;27;20040;-66
2021/12/22 06:53:47;;;;;;;24.85;11.38;;;;;;;-147.05;0.00;58290.09;5093486;28;20140;-68
2021/12/22 06:56:13;;;;;;;25.73;11.82;;;;;;;-147.05;0.00;58290.09;5106153;27;42156;-65
2021/12/22 06:58:38;;;;;;;32.53;12.02;;;;;;;-147.05;0.00;58290.09;5087702;28;20123;-65
2021/12/22 07:01:04;;;;;;;24.17;11.48;;;;;;;-147.05;0.00;58290.09;5088970;28;20048;-67
2021/12/22 07:03:30;;;;;;;25.45;12.23;;;;;;;-147.05;0.00;58290.09;5086865;28;20045;-65
2021/12/22 07:05:55;;;;;;;26.75;11.93;;;;;;;-147.05;0.00;58290.09;5095519;28;20043;-65
2021/12/22 07:08:21;;;;;;;27.70;12.77;;;;;;;-147.05;0.00;58290.09;5086399;28;20571;-66
2021/12/22 07:10:47;;;;;;;22.65;11.10;;;;;;;-147.05;0.00;58290.09;5082667;28;20139;-66
2021/12/22 07:13:14;;;;;;;22.23;11.30;;;;;;;-147.05;0.00;58290.09;5089707;28;32404;-67
2021/12/22 07:15:43;;;;;;;23.98;11.65;;;;;;;-147.05;0.00;58290.09;5089507;27;20047;-63
2021/12/22 07:18:12;;;;;;;26.55;11.43;;;;;;;-147.05;0.00;58290.09;5095235;28;20048;-67
2021/12/22 07:20:38;;;;;;;26.65;11.77;;;;;;;-147.05;0.00;58290.09;5092356;28;20120;-66
2021/12/22 07:23:03;;;;;;;24.70;11.13;;;;;;;-147.05;0.00;58290.09;5082161;28;20653;-65
2021/12/22 07:25:29;;;;;;;25.67;11.57;;;;;;;-147.05;0.00;58290.09;5077043;28;20029;-64
2021/12/22 07:27:55;;;;;;;27.13;11.18;;;;;;;-147.05;0.00;58290.09;5078871;28;20219;-66
2021/12/22 07:30:21;;;;;;;24.08;11.57;;;;;;;-147.05;0.00;58290.09;5088379;28;20048;-69
2021/12/22 07:32:46;;;;;;;65.95;29.15;;;;;;;-147.05;0.00;58290.09;5084658;28;20036;-66
2021/12/22 07:35:30;;;;;;;43.42;20.92;;;;;;;-147.05;0.00;58290.09;5080555;28;25242;-65
2021/12/22 07:38:35;;;;;;;32.90;16.17;;;;;;;-147.05;0.00;58290.09;5085195;28;20138;-65
2021/12/22 07:41:03;;;;;;;29.52;14.48;;;;;;;-147.05;0.00;58290.09;5109076;27;20132;-64
2021/12/22 07:43:29;;;;;;;44.28;23.67;;;;;;;-147.05;0.00;58290.09;5089158;27;20033;-66
2021/12/22 07:45:56;;;;;;;36.17;17.40;;;;;;;-147.05;0.00;58290.09;5075893;28;20052;-64
2021/12/22 07:48:22;;;;;;;29.10;14.30;;;;;;;-147.05;0.00;58290.09;5077698;28;20040;-64
2021/12/22 07:50:48;;;;;;;24.63;12.40;;;;;;;-147.05;0.00;58290.09;5086846;28;20044;-66
2021/12/22 07:53:13;;;;;;;28.92;13.57;;;;;;;-147.05;0.00;58290.09;5081740;28;20033;-65
2021/12/22 07:55:39;;;;;;;27.70;12.95;;;;;;;-147.05;0.00;58290.09;5078026;28;20045;-66
2021/12/22 07:58:07;;;;;;;25.05;11.50;;;;;;;-147.05;0.00;58290.09;5087914;28;20469;-66
2021/12/22 08:00:33;;;;;;;22.65;10.57;;;;;;;-147.05;0.00;58290.09;5079707;28;20048;-64
2021/12/22 08:02:59;;;;;;;25.02;11.05;;;;;;;-147.05;0.00;58290.09;5098346;27;20110;-64
2021/12/22 08:05:25;;;;;;;24.30;10.20;;;;;;;-147.05;0.00;58290.09;5089818;28;20043;-67
2021/12/22 08:07:50;;;;;;;20.58;10.40;;;;;;;-147.05;0.00;58290.09;5075751;28;20037;-67
2021/12/22 08:10:16;;;;;;;22.33;10.77;;;;;;;-147.05;0.00;58290.09;5074417;28;28210;-68
2021/12/22 08:12:41;;;;;;;19.67;9.90;;;;;;;-147.05;0.00;58290.09;5086271;28;20037;-66
2021/12/22 08:15:07;;;;;;;21.15;10.88;;;;;;;-147.05;0.00;58290.09;5087626;28;20115;-66
2021/12/22 08:17:34;;;;;;;25.88;10.88;;;;;;;-147.05;0.00;58290.09;5077135;28;20040;-64
2021/12/22 08:20:03;;;;;;;22.42;10.63;;;;;;;-147.05;0.00;58290.09;5083371;28;20098;-66
2021/12/22 08:22:28;;;;;;;20.67;10.23;;;;;;;-147.05;0.00;58290.09;5091251;28;20079;-66
2021/12/22 08:24:54;;;;;;;20.52;10.43;;;;;;;-147.05;0.00;58290.09;5084648;28;20119;-66
2021/12/22 08:27:23;;;;;;;22.33;9.98;;;;;;;-147.05;0.00;58290.09;5085317;28;20083;-67
2021/12/22 08:29:50;;;;;;;21.65;10.70;;;;;;;-147.05;0.00;58290.09;5083676;28;20048;-66
2021/12/22 08:32:18;;;;;;;22.00;10.25;;;;;;;-147.05;0.00;58290.09;5087705;28;20049;-67
2021/12/22 08:34:47;;;;;;;23.95;11.18;;;;;;;-147.05;0.00;58290.09;5085895;27;20478;-67
2021/12/22 08:39:58;;;;;;;25.17;10.73;;;;;;;-147.05;0.00;58290.09;5083273;28;20048;-65
2021/12/22 08:42:25;;;;;;;20.45;10.82;;;;;;;-147.05;0.00;58290.09;5081148;28;20495;-66
2021/12/22 08:44:52;;;;;;;22.10;9.95;;;;;;;-147.05;0.00;58290.09;5086035;28;20032;-67
2021/12/22 08:47:18;;;;;;;18.05;9.65;;;;;;;-147.05;0.00;58290.09;5081393;28;20056;-67
2021/12/22 08:49:47;;;;;;;25.27;11.77;;;;;;;-147.05;0.00;58290.09;5085815;28;20127;-65
2021/12/22 08:52:13;;;;;;;22.13;10.60;;;;;;;-147.05;0.00;58290.09;5075460;28;20033;-65
2021/12/22 08:54:39;;;;;;;20.88;10.45;;;;;;;-147.05;0.00;58290.09;5091955;28;20123;-66
2021/12/22 08:57:05;;;;;;;22.60;11.82;;;;;;;-147.05;0.00;58290.09;5092808;28;20040;-65
2021/12/22 08:59:32;;;;;;;20.83;10.52;;;;;;;-147.05;0.00;58290.09;5079596;28;20037;-65
2021/12/22 09:01:58;;;;;;;18.25;11.15;;;;;;;-147.05;0.00;58290.09;5084981;28;20518;-66
2021/12/22 09:04:24;;;;;;;24.40;11.48;;;;;;;-147.05;0.00;58290.09;5087159;27;20059;-66
2021/12/22 09:06:52;;;;;;;20.67;11.80;;;;;;;-147.05;0.00;58290.09;5088300;28;20044;-67
2021/12/22 09:09:20;;;;;;;17.65;10.25;;;;;;;-2.83;nan;101184.19;5109625;28;20040;-68
2021/12/22 09:11:47;;;;;;;21.58;10.52;;;;;;;-2.76;nan;101176.19;5081655;27;20041;-67
2021/12/22 09:14:12;;;;;;;22.58;10.82;;;;;;;-2.66;nan;101185.03;5075755;28;20095;-67
2021/12/22 09:16:39;;;;;;;19.42;11.18;;;;;;;-2.59;nan;101188.72;5084754;28;20036;-65
2021/12/22 09:19:08;;;;;;;27.80;12.55;;;;;;;-2.53;nan;101194.06;5083789;28;20048;-66
2021/12/22 09:21:34;;;;;;;21.33;11.70;;;;;;;-2.44;nan;101191.97;5081596;28;20037;-68
2021/12/22 09:24:01;;;;;;;18.77;10.75;;;;;;;-2.34;nan;101189.13;5076452;28;20037;-68
2021/12/22 09:26:26;;;;;;;33.38;14.70;;;;;;;-2.23;nan;101193.81;5083485;28;20048;-65
2021/12/22 09:28:54;;;;;;;31.45;14.68;;;;;;;-2.17;nan;101196.63;5093177;28;38550;-69
2021/12/22 09:31:21;;;;;;;21.70;11.55;;;;;;;-2.11;nan;101196.06;5074346;28;20048;-66
2021/12/22 09:33:47;;;;;;;25.08;11.70;;;;;;;-2.00;nan;101196.56;5083210;28;20080;-65
2021/12/22 09:36:15;;;;;;;17.52;10.18;;;;;;;-1.93;nan;101201.97;5083929;27;20131;-65
2021/12/22 09:38:41;;;;;;;21.73;10.13;;;;;;;-1.84;nan;101195.63;5074916;28;20048;-65
2021/12/22 09:41:09;;;;;;;26.13;10.23;;;;;;;-1.78;nan;101191.75;5087044;28;20056;-67
2021/12/22 09:43:34;;;;;;;19.35;10.10;;;;;;;-1.67;nan;101194.75;5088720;28;20128;-66
2021/12/22 09:46:05;;;;;;;20.42;10.07;;;;;;;-1.58;nan;101192.63;5082250;28;20079;-67
2021/12/22 09:53:43;;;;;;;19.35;9.50;;;;;;;-1.31;nan;101197.19;5093330;28;20470;-66
2021/12/22 09:56:12;;;;;;;24.73;10.10;;;;;;;-1.20;nan;101199.34;5086554;28;20064;-68
2021/12/22 09:58:44;;;;;;;17.88;8.82;;;;;;;-1.12;nan;101188.75;5082833;28;20049;-65
2021/12/22 10:01:12;;;;;;;15.32;9.20;;;;;;;-1.04;nan;101179.00;5079627;28;20479;-66
2021/12/22 10:03:38;;;;;;;14.65;8.93;;;;;;;-1.01;nan;101181.69;5094724;28;20126;-66
2021/12/22 10:06:05;;;;;;;17.95;9.32;;;;;;;-0.99;nan;101172.53;5078250;28;20427;-66
2021/12/22 10:08:30;;;;;;;15.90;9.48;;;;;;;-0.92;nan;101170.25;5077008;28;20053;-66
2021/12/22 10:11:06;;;;;;;16.30;9.23;;;;;;;-0.89;nan;101172.91;5080089;28;20047;-66
2021/12/22 10:13:34;;;;;;;21.00;10.45;;;;;;;-0.88;nan;101167.06;5107894;28;20101;-66
2021/12/22 10:16:10;;;;;;;19.35;9.40;;;;;;;-0.83;nan;101165.56;5093102;27;20041;-65
2021/12/22 10:18:35;;;;;;;18.35;9.68;;;;;;;-0.77;nan;101170.91;5083307;28;20041;-65
2021/12/22 10:21:23;;;;;;;50.78;23.60;;;;;;;-0.70;nan;101177.91;5081175;28;20596;-67
2021/12/22 10:23:53;;;;;;;35.60;16.27;;;;;;;-0.64;nan;101168.06;5096587;28;20562;-66
2021/12/22 10:26:23;;;;;;;21.25;11.38;;;;;;;-0.59;nan;101162.34;5084937;28;20045;-67
2021/12/22 10:28:59;;;;;;;23.13;12.10;;;;;;;-0.55;nan;101159.13;5090847;28;20047;-66
2021/12/22 10:31:39;;;;;;;19.30;11.50;;;;;;;-0.53;nan;101152.50;5088551;28;20208;-65
2021/12/22 10:34:12;;;;;;;15.68;9.93;;;;;;;-0.51;nan;101154.28;5080000;28;20041;-67
2021/12/22 10:36:51;;;;;;;20.45;12.85;;;;;;;-0.48;nan;101154.41;5078112;28;20040;-67
2021/12/22 10:39:19;;;;;;;18.23;11.02;;;;;;;-0.44;nan;101157.91;5090392;28;20120;-65
2021/12/22 10:41:45;;;;;;;18.38;10.30;;;;;;;-0.42;nan;101150.41;5078204;28;20079;-64
2021/12/22 10:44:11;;;;;;;18.73;9.95;;;;;;;-0.43;nan;101147.00;5091092;28;20415;-66
2021/12/22 10:46:37;;;;;;;59.95;28.55;;;;;;;-0.44;nan;101144.44;5077204;28;20053;-65
2021/12/22 10:49:21;;;;;;;161.43;79.72;;;;;;;-0.45;nan;101143.56;5084770;28;20052;-65
2021/12/22 10:52:03;;;;;;;38.97;20.52;;;;;;;-0.40;nan;101148.78;5078258;28;20044;-65
2021/12/22 10:54:37;;;;;;;37.80;27.77;;;;;;;-0.38;nan;101142.13;5077420;28;20546;-65
2021/12/22 10:57:12;;;;;;;20.13;13.38;;;;;;;-0.37;nan;101132.13;5085846;28;20036;-65
2021/12/22 10:59:53;;;;;;;18.90;11.65;;;;;;;-0.31;nan;101131.50;5084736;27;20059;-64
2021/12/22 11:02:28;;;;;;;22.63;11.20;;;;;;;-0.23;nan;101120.03;5080556;28;20045;-65
2021/12/22 11:04:54;;;;;;;19.05;10.80;;;;;;;-0.15;nan;101122.81;5077646;28;20117;-68
2021/12/22 11:07:24;;;;;;;19.48;11.93;;;;;;;-0.12;nan;101127.16;5109078;28;20040;-66
2021/12/22 11:09:51;;;;;;;187.43;80.30;;;;;;;-0.06;nan;101129.91;5085987;28;20525;-66
2021/12/22 11:12:17;;;;;;;44.05;26.25;;;;;;;0.01;nan;101126.81;5086272;28;20028;-66
2021/12/22 11:14:51;;;;;;;24.05;12.00;;;;;;;0.06;nan;101117.75;5086482;27;20037;-66
2021/12/22 11:17:20;;;;;;;29.73;18.65;;;;;;;0.16;nan;101113.88;5088460;28;20481;-67
2021/12/22 11:20:03;;;;;;;27.63;17.83;;;;;;;0.26;nan;101108.34;5088525;28;20406;-65
2021/12/22 11:22:59;;;;;;;41.88;15.35;;;;;;;0.38;nan;101109.59;5088696;27;20489;-67
2021/12/22 11:25:28;;;;;;;21.15;10.25;;;;;;;0.47;nan;101107.41;5086771;28;20041;-65
2021/12/22 11:27:55;;;;;;;18.27;10.10;;;;;;;0.54;nan;101103.44;5081914;28;20037;-66
2021/12/22 11:30:26;;;;;;;24.40;10.70;;;;;;;0.61;nan;101093.59;5081269;28;20029;-65
2021/12/22 11:32:54;;;;;;;20.17;9.73;;;;;;;0.63;nan;101093.63;5088399;28;20051;-66
2021/12/22 11:35:22;;;;;;;17.90;9.68;;;;;;;0.65;nan;101089.50;5088468;28;20059;-66